Terminal Aerodrome Forecast
Issued by NWS Grand Forks, ND

Home | Current Version | Previous Version | Text Only | Print | Product List | Glossary On
Versions: 1 2 3 4 5 6 7 8 9 10 11 12 13 14 15 16 17
000
FTUS43 KFGF 061800 AAA
TAFFAR
TAF AMD
KFAR 061802Z 0618/0718 14015G25KT P6SM -RA BKN012 OVC020
     FM062000 14014G23KT 4SM -RA BR OVC012
     FM070200 15012KT 5SM BR OVC015
     FM071000 15009KT 3SM -RA BR OVC008=

USA.gov is the U.S. government's official web portal to all federal, state and local government web resources and services.